Time;durP1;ratioP1;P1;durP2;ratioP2;P2;SDS_P1;SDS_P2;PMS_P1;PMS_P2;Temp;Humidity;BMP_temperature;BMP_pressure;BME280_temperature;BME280_humidity;BME280_pressure;Samples;Min_cycle;Max_cycle;Signal;HPM_P1;HPM_P2
2023/01/25 00:00:27;;;;;;;47.13;42.00;;;0.60;99.90;;;;;;4995625;28;20514;-78
2023/01/25 00:02:53;;;;;;;48.90;43.35;;;0.60;99.90;;;;;;5010632;28;20033;-78
2023/01/25 00:05:19;;;;;;;46.58;41.55;;;0.60;99.90;;;;;;5014425;28;20603;-78
2023/01/25 00:07:47;;;;;;;48.78;43.55;;;0.60;99.90;;;;;;5003612;28;20048;-78
2023/01/25 00:10:16;;;;;;;46.35;41.28;;;0.60;99.90;;;;;;5009407;28;20041;-78
2023/01/25 00:12:42;;;;;;;47.30;42.20;;;0.60;99.90;;;;;;4999654;28;20103;-78
2023/01/25 00:15:08;;;;;;;45.17;40.25;;;0.60;99.90;;;;;;5000633;28;20049;-78
2023/01/25 00:17:34;;;;;;;44.28;39.42;;;0.60;99.90;;;;;;5000375;28;20052;-78
2023/01/25 00:19:59;;;;;;;44.00;39.20;;;0.60;99.90;;;;;;5000843;28;20037;-78
2023/01/25 00:22:25;;;;;;;45.90;40.97;;;0.60;99.90;;;;;;4997875;28;20116;-78
2023/01/25 00:24:51;;;;;;;44.90;40.00;;;0.50;99.90;;;;;;5000471;28;20502;-78
2023/01/25 00:27:19;;;;;;;44.58;39.75;;;0.50;99.90;;;;;;5000253;28;20037;-78
2023/01/25 00:29:45;;;;;;;44.65;39.92;;;0.50;99.90;;;;;;5000661;28;20033;-78
2023/01/25 00:32:14;;;;;;;44.08;39.42;;;0.50;99.90;;;;;;4998378;28;20045;-78
2023/01/25 00:34:50;;;;;;;44.65;39.83;;;0.50;99.90;;;;;;5000509;28;20470;-78
2023/01/25 00:37:38;;;;;;;46.67;41.65;;;0.50;99.90;;;;;;5000212;28;20041;-78
2023/01/25 00:40:05;;;;;;;44.67;39.97;;;0.50;99.90;;;;;;5020117;28;20406;-78
2023/01/25 00:42:33;;;;;;;44.45;39.70;;;0.50;99.90;;;;;;5000633;28;20602;-78
2023/01/25 00:45:02;;;;;;;44.47;39.83;;;0.50;99.90;;;;;;5002440;28;20037;-78
2023/01/25 00:47:28;;;;;;;45.17;40.35;;;0.50;99.90;;;;;;5016564;28;20091;-78
2023/01/25 00:49:54;;;;;;;46.10;41.10;;;0.50;99.90;;;;;;5019802;28;20037;-78
2023/01/25 00:52:22;;;;;;;44.67;39.90;;;0.50;99.90;;;;;;5002887;28;20450;-78
2023/01/25 00:54:51;;;;;;;45.30;40.45;;;0.50;99.90;;;;;;4999386;28;20041;-78
2023/01/25 00:57:17;;;;;;;45.03;40.13;;;0.50;99.90;;;;;;5000185;28;20033;-78
2023/01/25 00:59:46;;;;;;;45.90;40.75;;;0.50;99.90;;;;;;4999676;28;20128;-78
2023/01/25 01:02:14;;;;;;;45.70;40.72;;;0.50;99.90;;;;;;4998353;28;20413;-78
2023/01/25 01:04:40;;;;;;;44.45;39.80;;;0.50;99.90;;;;;;4998763;28;20095;-78
2023/01/25 01:07:06;;;;;;;45.33;40.53;;;0.50;99.90;;;;;;5003111;28;20112;-78
2023/01/25 01:09:42;;;;;;;;;;;;;;;;;;;;;
2023/01/25 01:12:08;;;;;;;43.95;39.22;;;0.50;99.90;;;;;;5016285;28;20049;-78
2023/01/25 01:14:34;;;;;;;43.22;38.63;;;0.40;99.90;;;;;;5015135;28;20095;-78
2023/01/25 01:17:00;;;;;;;45.42;40.45;;;0.40;99.90;;;;;;5011750;28;20446;-78
2023/01/25 01:19:26;;;;;;;44.38;39.80;;;0.40;99.90;;;;;;4998354;28;20385;-78
2023/01/25 01:21:54;;;;;;;45.67;40.80;;;0.50;99.90;;;;;;4998797;28;20052;-78
2023/01/25 01:24:20;;;;;;;44.55;39.75;;;0.40;99.90;;;;;;4998240;28;20040;-78
2023/01/25 01:26:49;;;;;;;45.20;40.22;;;0.40;99.90;;;;;;4999303;28;20038;-78
2023/01/25 01:29:15;;;;;;;43.92;39.28;;;0.40;99.90;;;;;;4997683;28;20069;-78
2023/01/25 01:31:40;;;;;;;45.92;40.92;;;0.50;99.90;;;;;;5002417;28;20504;-78
2023/01/25 01:34:09;;;;;;;45.55;40.58;;;0.40;99.90;;;;;;5010967;28;20059;-78
2023/01/25 01:36:38;;;;;;;46.95;41.65;;;0.40;99.90;;;;;;5018854;28;20507;-78
2023/01/25 01:39:04;;;;;;;46.50;41.60;;;0.40;99.90;;;;;;5002821;28;20040;-78
2023/01/25 01:41:30;;;;;;;46.30;39.67;;;0.40;99.90;;;;;;4998309;28;20399;-78
2023/01/25 01:43:56;;;;;;;46.08;41.15;;;0.40;99.90;;;;;;4998698;28;20041;-78
2023/01/25 01:46:22;;;;;;;44.65;39.75;;;0.40;99.90;;;;;;4999086;28;20136;-78
2023/01/25 01:49:00;;;;;;;44.97;39.80;;;0.40;99.90;;;;;;4998287;28;20064;-78
2023/01/25 01:51:46;;;;;;;31.98;17.30;;;0.40;99.90;;;;;;5008508;28;20044;-78
2023/01/25 01:54:47;;;;;;;46.15;38.90;;;0.40;99.90;;;;;;5018348;28;20045;-78
2023/01/25 01:57:24;;;;;;;34.80;19.05;;;0.40;99.90;;;;;;5006193;28;20119;-78
2023/01/25 02:00:07;;;;;;;45.42;40.53;;;0.30;99.90;;;;;;5009258;28;20052;-78
2023/01/25 02:02:36;;;;;;;43.22;38.45;;;0.30;99.90;;;;;;4998668;28;20073;-78
2023/01/25 02:05:05;;;;;;;45.45;40.53;;;0.30;99.90;;;;;;4997317;28;20038;-78
2023/01/25 02:07:37;;;;;;;45.03;40.05;;;0.30;99.90;;;;;;4998656;28;20194;-78
2023/01/25 02:10:10;;;;;;;31.20;18.17;;;0.30;99.90;;;;;;4998989;28;20037;-78
2023/01/25 02:12:40;;;;;;;45.85;40.80;;;0.30;99.90;;;;;;4984976;28;20047;-78
2023/01/25 02:15:09;;;;;;;44.92;39.83;;;0.30;99.90;;;;;;4998377;28;20049;-78
2023/01/25 02:17:37;;;;;;;44.88;39.97;;;0.30;99.90;;;;;;4998738;28;20037;-78
2023/01/25 02:20:22;;;;;;;46.50;41.40;;;0.30;99.90;;;;;;5013756;28;20045;-78
2023/01/25 02:23:06;;;;;;;47.17;41.47;;;0.30;99.90;;;;;;5004177;28;20041;-77
2023/01/25 02:25:31;;;;;;;48.00;41.42;;;0.30;99.90;;;;;;4998368;28;20048;-78
2023/01/25 02:28:08;;;;;;;48.03;42.08;;;0.30;99.90;;;;;;4994225;28;20121;-78
2023/01/25 02:30:34;;;;;;;47.10;41.40;;;0.30;99.90;;;;;;4983114;28;20041;-78
2023/01/25 02:33:02;;;;;;;47.95;41.47;;;0.30;99.90;;;;;;4997986;28;20068;-78
2023/01/25 02:35:40;;;;;;;48.65;41.25;;;0.30;99.90;;;;;;4997100;28;20107;-78
2023/01/25 02:38:07;;;;;;;49.17;41.63;;;0.20;99.90;;;;;;5001212;28;20132;-78
2023/01/25 02:41:13;;;;;;;35.40;17.75;;;0.20;99.90;;;;;;5011750;28;20140;-78
2023/01/25 02:43:42;;;;;;;48.08;42.05;;;0.20;99.90;;;;;;4993914;28;20494;-78
2023/01/25 02:46:20;;;;;;;48.33;42.67;;;0.20;99.90;;;;;;4996770;28;20047;-78
2023/01/25 02:48:46;;;;;;;47.50;40.60;;;0.20;99.90;;;;;;5006226;28;20030;-78
2023/01/25 02:51:12;;;;;;;50.55;43.50;;;0.20;99.90;;;;;;4997849;28;20411;-78
2023/01/25 02:53:40;;;;;;;49.30;41.40;;;0.20;99.90;;;;;;4997678;28;20470;-78
2023/01/25 02:56:09;;;;;;;48.65;41.97;;;0.20;99.90;;;;;;4997729;28;20106;-78
2023/01/25 02:58:38;;;;;;;51.42;43.53;;;0.20;99.90;;;;;;4981509;28;20495;-78
2023/01/25 03:01:06;;;;;;;49.20;42.78;;;0.20;99.90;;;;;;5004413;28;20048;-77
2023/01/25 03:03:31;;;;;;;49.13;42.30;;;0.30;99.90;;;;;;4998723;28;20045;-78
2023/01/25 03:06:00;;;;;;;53.00;44.85;;;0.20;99.90;;;;;;4996871;28;20091;-78
2023/01/25 03:08:25;;;;;;;40.00;19.98;;;0.20;99.90;;;;;;5017139;28;20037;-78
2023/01/25 03:10:59;;;;;;;52.85;44.00;;;0.20;99.90;;;;;;5004075;28;20034;-78
2023/01/25 03:13:28;;;;;;;50.92;42.55;;;0.20;99.90;;;;;;4994997;28;20119;-77
2023/01/25 03:16:02;;;;;;;50.50;42.15;;;0.20;99.90;;;;;;5017371;28;20055;-77
2023/01/25 03:18:28;;;;;;;51.58;42.72;;;0.20;99.90;;;;;;5017462;28;20411;-78
2023/01/25 03:20:54;;;;;;;52.58;43.55;;;0.20;99.90;;;;;;5005968;28;20041;-77
2023/01/25 03:23:20;;;;;;;40.03;19.50;;;0.20;99.90;;;;;;4996689;28;20037;-78
2023/01/25 03:25:45;;;;;;;51.38;42.97;;;0.10;99.90;;;;;;4997824;28;20030;-78
2023/01/25 03:28:14;;;;;;;52.33;43.78;;;0.20;99.90;;;;;;4997390;28;20535;-78
2023/01/25 03:30:40;;;;;;;50.60;42.75;;;0.20;99.90;;;;;;4994806;28;20107;-78
2023/01/25 03:33:09;;;;;;;53.33;43.00;;;0.10;99.90;;;;;;4999070;28;20127;-78
2023/01/25 03:35:35;;;;;;;55.70;44.78;;;0.10;99.90;;;;;;5017010;28;20395;-78
2023/01/25 03:38:01;;;;;;;53.17;42.85;;;0.20;99.90;;;;;;5006029;28;20051;-77
2023/01/25 03:40:29;;;;;;;50.75;42.67;;;0.10;99.90;;;;;;5014694;28;20135;-78
2023/01/25 03:43:03;;;;;;;51.83;41.80;;;0.10;99.90;;;;;;4995514;28;20042;-78
2023/01/25 03:45:29;;;;;;;52.47;43.38;;;0.10;99.90;;;;;;5017112;28;20503;-78
2023/01/25 03:48:00;;;;;;;51.15;42.90;;;0.10;99.90;;;;;;5002376;28;20033;-78
2023/01/25 03:50:28;;;;;;;56.83;45.33;;;0.10;99.90;;;;;;5000526;28;20048;-78
2023/01/25 03:53:00;;;;;;;54.28;44.38;;;0.10;99.90;;;;;;5000759;28;20069;-78
2023/01/25 03:55:26;;;;;;;53.78;43.88;;;0.10;99.90;;;;;;5017578;28;20052;-77
2023/01/25 03:57:52;;;;;;;54.08;44.15;;;0.20;99.90;;;;;;5016971;28;20045;-78
2023/01/25 04:00:18;;;;;;;56.42;45.53;;;0.10;99.90;;;;;;5017094;28;20048;-78
2023/01/25 04:02:47;;;;;;;53.88;43.05;;;0.10;99.90;;;;;;5014766;28;20529;-78
2023/01/25 04:05:13;;;;;;;38.10;20.92;;;0.20;99.90;;;;;;5001155;28;20095;-78
2023/01/25 04:07:38;;;;;;;53.90;42.83;;;0.20;99.90;;;;;;5020021;28;20033;-78
2023/01/25 04:10:08;;;;;;;52.15;42.80;;;0.10;99.90;;;;;;5020799;28;20029;-77
2023/01/25 04:12:37;;;;;;;52.85;43.80;;;0.10;99.90;;;;;;5061980;22;20036;-81
2023/01/25 04:15:03;;;;;;;54.08;43.85;;;0.10;99.90;;;;;;5048543;28;20032;-80
2023/01/25 04:17:28;;;;;;;54.03;44.85;;;0.10;99.90;;;;;;5044138;28;20037;-80
2023/01/25 04:19:54;;;;;;;56.55;44.80;;;0.10;99.90;;;;;;5045985;28;20048;-80
2023/01/25 04:22:19;;;;;;;52.85;43.40;;;0.10;99.90;;;;;;5043049;28;20124;-81
2023/01/25 04:24:45;;;;;;;53.80;44.08;;;0.10;99.90;;;;;;5031288;28;20498;-81
2023/01/25 04:27:11;;;;;;;52.33;43.28;;;0.10;99.90;;;;;;5025072;28;20446;-80
2023/01/25 04:29:36;;;;;;;56.08;44.17;;;0.20;99.90;;;;;;5026328;28;20037;-80
2023/01/25 04:32:02;;;;;;;54.05;42.75;;;0.20;99.90;;;;;;5026161;28;20037;-80
2023/01/25 04:34:28;;;;;;;53.47;44.45;;;0.20;99.90;;;;;;5031806;28;20040;-81
2023/01/25 04:36:53;;;;;;;53.70;44.22;;;0.20;99.90;;;;;;5042561;28;20106;-81
2023/01/25 04:39:19;;;;;;;42.08;20.10;;;0.10;99.90;;;;;;5043275;28;20132;-80
2023/01/25 04:41:44;;;;;;;56.33;45.67;;;0.10;99.90;;;;;;5043347;28;20151;-80
2023/01/25 04:44:10;;;;;;;52.45;42.88;;;0.10;99.90;;;;;;5033332;28;20176;-80
2023/01/25 04:46:36;;;;;;;53.75;44.00;;;0.10;99.90;;;;;;5034222;28;20041;-80
2023/01/25 04:49:02;;;;;;;51.90;42.67;;;0.10;99.90;;;;;;5026113;28;20073;-81
2023/01/25 04:51:27;;;;;;;54.08;44.75;;;0.10;99.90;;;;;;5038237;28;20041;-80
2023/01/25 04:53:53;;;;;;;37.47;20.38;;;0.10;99.90;;;;;;5018717;28;20036;-80
2023/01/25 04:56:19;;;;;;;52.03;42.42;;;0.10;99.90;;;;;;5028213;28;20414;-80
2023/01/25 04:58:44;;;;;;;52.20;43.63;;;0.10;99.90;;;;;;5020879;28;20037;-80
2023/01/25 05:01:10;;;;;;;50.53;42.30;;;0.10;99.90;;;;;;5021377;28;20045;-80
2023/01/25 05:03:36;;;;;;;51.28;42.83;;;0.10;99.90;;;;;;5026691;28;20040;-80
2023/01/25 05:06:01;;;;;;;54.75;42.70;;;0.10;99.90;;;;;;5021299;28;20120;-80
2023/01/25 05:08:27;;;;;;;38.90;20.70;;;0.10;99.90;;;;;;5020048;28;20441;-80
2023/01/25 05:10:53;;;;;;;48.53;40.25;;;0.10;99.90;;;;;;5037754;28;20037;-81
2023/01/25 05:13:19;;;;;;;50.10;41.15;;;0.10;99.90;;;;;;5016486;28;20116;-81
2023/01/25 05:15:45;;;;;;;50.55;40.97;;;0.10;99.90;;;;;;5019561;28;20467;-80
2023/01/25 05:18:10;;;;;;;34.80;18.60;;;0.00;99.90;;;;;;5037363;28;20039;-81
2023/01/25 05:20:36;;;;;;;50.78;41.65;;;0.00;99.90;;;;;;5020870;28;20069;-80
2023/01/25 05:23:02;;;;;;;49.90;41.75;;;0.00;99.90;;;;;;5034497;28;20064;-82
2023/01/25 05:28:11;;;;;;;48.10;40.13;;;0.00;99.90;;;;;;5037897;28;20044;-83
2023/01/25 05:30:37;;;;;;;49.22;41.17;;;0.00;99.90;;;;;;5020963;28;20036;-82
2023/01/25 05:33:03;;;;;;;51.42;41.08;;;0.00;99.90;;;;;;5022541;28;20123;-82
2023/01/25 05:35:28;;;;;;;50.22;41.28;;;0.00;99.90;;;;;;5023653;28;20060;-82
2023/01/25 05:37:58;;;;;;;49.65;41.88;;;0.00;99.90;;;;;;5018623;28;20045;-82
2023/01/25 05:40:25;;;;;;;50.47;42.28;;;0.00;99.90;;;;;;5045192;28;20047;-82
2023/01/25 05:42:56;;;;;;;47.90;40.00;;;0.00;99.90;;;;;;5016814;28;20064;-82
2023/01/25 05:45:22;;;;;;;52.05;41.55;;;0.00;99.90;;;;;;5037057;28;20041;-82
2023/01/25 05:47:52;;;;;;;51.42;42.35;;;0.00;99.90;;;;;;5019579;28;20048;-83
2023/01/25 05:50:18;;;;;;;51.78;42.60;;;-0.10;99.90;;;;;;5014216;28;20037;-82
2023/01/25 05:52:45;;;;;;;52.40;43.67;;;0.00;99.90;;;;;;5037563;28;20056;-82
2023/01/25 05:55:11;;;;;;;50.47;41.58;;;0.00;99.90;;;;;;5020203;28;20037;-82
2023/01/25 05:57:36;;;;;;;50.22;41.63;;;0.00;99.90;;;;;;5020608;28;20462;-82
2023/01/25 06:00:03;;;;;;;53.47;43.42;;;0.00;99.90;;;;;;5020949;28;20045;-83
2023/01/25 06:02:30;;;;;;;51.25;41.70;;;0.00;99.90;;;;;;5017883;28;20038;-82
2023/01/25 06:04:56;;;;;;;55.10;44.25;;;-0.10;99.90;;;;;;5036235;28;20426;-83
2023/01/25 06:07:22;;;;;;;48.55;40.47;;;-0.10;99.90;;;;;;5028949;28;20082;-82
2023/01/25 06:09:47;;;;;;;52.72;43.20;;;-0.10;99.90;;;;;;5038802;28;20091;-82
2023/01/25 06:12:13;;;;;;;51.28;41.65;;;-0.10;99.90;;;;;;5020881;28;20033;-82
2023/01/25 06:14:38;;;;;;;51.30;41.28;;;-0.10;99.90;;;;;;5051180;28;20063;-83
2023/01/25 06:17:04;;;;;;;54.90;43.75;;;-0.10;99.90;;;;;;5037862;28;20502;-82
2023/01/25 06:19:29;;;;;;;38.00;19.90;;;-0.10;99.90;;;;;;5022392;28;20075;-82
2023/01/25 06:21:55;;;;;;;38.60;19.10;;;-0.10;99.90;;;;;;5022546;28;20060;-82
2023/01/25 06:24:21;;;;;;;54.60;42.38;;;-0.10;99.90;;;;;;5039507;28;20402;-83
2023/01/25 06:26:49;;;;;;;53.90;43.08;;;-0.10;99.90;;;;;;5039759;28;20037;-83
2023/01/25 06:29:14;;;;;;;41.50;20.27;;;-0.10;99.90;;;;;;5031846;28;20044;-82
2023/01/25 06:31:40;;;;;;;52.95;42.60;;;-0.10;99.90;;;;;;5023081;28;20037;-82
2023/01/25 06:34:07;;;;;;;52.10;42.08;;;-0.10;99.90;;;;;;5023043;28;20041;-82
2023/01/25 06:36:33;;;;;;;39.45;20.23;;;-0.10;99.90;;;;;;5027535;28;20040;-82
2023/01/25 06:38:58;;;;;;;54.88;43.60;;;-0.10;99.90;;;;;;5021490;28;20097;-82
2023/01/25 06:41:24;;;;;;;54.85;42.92;;;-0.10;99.90;;;;;;5022479;28;20544;-82
2023/01/25 06:43:51;;;;;;;54.08;42.70;;;-0.10;99.90;;;;;;5036743;28;20105;-82
2023/01/25 06:46:17;;;;;;;56.80;44.45;;;-0.10;99.90;;;;;;5032248;28;20036;-82
2023/01/25 06:48:42;;;;;;;58.17;45.67;;;-0.10;99.90;;;;;;5054549;28;20044;-82
2023/01/25 06:51:10;;;;;;;56.97;43.35;;;0.00;99.90;;;;;;5023965;28;20037;-83
2023/01/25 06:53:39;;;;;;;55.28;43.50;;;0.00;99.90;;;;;;5021374;28;20141;-82
2023/01/25 06:56:04;;;;;;;53.78;42.60;;;0.00;99.90;;;;;;5038999;28;20108;-82
2023/01/25 06:58:31;;;;;;;56.70;43.92;;;0.00;99.90;;;;;;5036045;28;20494;-83
2023/01/25 07:01:03;;;;;;;55.78;44.65;;;0.00;99.90;;;;;;5021719;28;20063;-82
2023/01/25 07:03:30;;;;;;;56.45;45.05;;;0.00;99.90;;;;;;5040754;28;20516;-82
2023/01/25 07:06:00;;;;;;;56.38;42.47;;;0.00;99.90;;;;;;5036069;28;20043;-82
2023/01/25 07:08:25;;;;;;;56.03;43.60;;;0.00;99.90;;;;;;5048104;28;20029;-82
2023/01/25 07:10:56;;;;;;;38.33;19.60;;;0.00;99.90;;;;;;5038874;28;20045;-82
2023/01/25 07:13:23;;;;;;;54.67;43.75;;;0.00;99.90;;;;;;5028446;28;20029;-82
2023/01/25 07:15:56;;;;;;;56.38;43.08;;;-0.10;99.90;;;;;;5023125;28;20041;-82
2023/01/25 07:18:22;;;;;;;42.05;20.33;;;0.00;99.90;;;;;;5019924;28;20048;-82
2023/01/25 07:20:49;;;;;;;41.92;20.15;;;0.00;99.90;;;;;;5025942;28;20100;-83
2023/01/25 07:23:14;;;;;;;57.03;43.97;;;0.00;99.90;;;;;;5013219;28;20114;-82
2023/01/25 07:25:48;;;;;;;53.55;40.45;;;0.00;99.90;;;;;;5054602;28;20455;-82
2023/01/25 07:28:15;;;;;;;58.42;42.38;;;-0.10;99.90;;;;;;5038173;28;20036;-82
2023/01/25 07:30:42;;;;;;;52.83;41.65;;;-0.10;99.90;;;;;;5022175;28;20041;-82
2023/01/25 07:33:09;;;;;;;53.63;41.45;;;-0.10;99.90;;;;;;5024995;28;20037;-82
2023/01/25 07:35:35;;;;;;;50.22;39.45;;;-0.10;99.90;;;;;;5036445;28;20041;-82
2023/01/25 07:38:02;;;;;;;47.65;38.00;;;-0.10;99.90;;;;;;5022835;28;20052;-82
2023/01/25 07:40:28;;;;;;;48.88;37.40;;;-0.10;99.90;;;;;;5024963;28;20498;-82
2023/01/25 07:42:53;;;;;;;49.78;39.33;;;-0.10;99.90;;;;;;5026137;28;20044;-82
2023/01/25 07:45:19;;;;;;;49.25;38.22;;;-0.20;99.90;;;;;;5038229;28;20460;-83
2023/01/25 07:47:45;;;;;;;49.10;38.95;;;-0.20;99.90;;;;;;5039687;28;20036;-82
2023/01/25 07:50:12;;;;;;;35.20;17.35;;;-0.10;99.90;;;;;;5020201;28;20402;-82
2023/01/25 07:52:37;;;;;;;48.97;38.53;;;-0.10;99.90;;;;;;5044112;28;20465;-82
2023/01/25 07:55:04;;;;;;;33.42;17.25;;;-0.10;99.90;;;;;;5026076;28;20071;-83
2023/01/25 07:57:30;;;;;;;47.40;38.10;;;-0.20;99.90;;;;;;5023349;28;20052;-82
2023/01/25 07:59:55;;;;;;;50.88;38.95;;;-0.10;99.90;;;;;;5023801;28;20041;-82
2023/01/25 08:02:21;;;;;;;50.60;39.72;;;-0.20;99.90;;;;;;5042909;28;20501;-82
2023/01/25 08:04:47;;;;;;;49.70;38.75;;;-0.10;99.90;;;;;;5024282;28;20044;-78
2023/01/25 08:07:13;;;;;;;49.03;39.72;;;-0.10;99.90;;;;;;5039124;28;20036;-81
2023/01/25 08:09:40;;;;;;;51.90;41.05;;;-0.10;99.90;;;;;;5027966;28;20048;-80
2023/01/25 08:12:06;;;;;;;52.08;40.72;;;-0.10;99.90;;;;;;5050870;28;20126;-79
2023/01/25 08:14:33;;;;;;;47.78;37.55;;;-0.10;99.90;;;;;;5029752;28;20112;-80
2023/01/25 08:16:58;;;;;;;48.28;37.60;;;-0.10;99.90;;;;;;5034134;28;20037;-79
2023/01/25 08:19:25;;;;;;;47.63;36.80;;;-0.10;99.90;;;;;;5036779;28;20033;-79
2023/01/25 08:21:51;;;;;;;47.10;36.92;;;-0.10;99.90;;;;;;5031433;28;20065;-78
2023/01/25 08:24:17;;;;;;;46.85;38.25;;;-0.10;99.90;;;;;;5034722;28;20556;-80
2023/01/25 08:26:43;;;;;;;33.50;16.42;;;-0.10;99.90;;;;;;5035058;28;20076;-79
2023/01/25 08:29:10;;;;;;;42.22;34.25;;;-0.20;99.90;;;;;;5021619;28;20040;-79
2023/01/25 08:31:40;;;;;;;31.85;15.38;;;-0.20;99.90;;;;;;5042463;28;20884;-80
2023/01/25 08:34:06;;;;;;;43.22;34.38;;;-0.20;99.90;;;;;;5037300;28;20418;-79
2023/01/25 08:36:32;;;;;;;47.35;36.08;;;-0.30;99.90;;;;;;5056305;28;20044;-79
2023/01/25 08:39:06;;;;;;;44.42;34.85;;;-0.20;99.90;;;;;;5039639;28;20393;-79
2023/01/25 08:41:33;;;;;;;42.10;33.85;;;-0.30;99.90;;;;;;5031841;28;20047;-79
2023/01/25 08:43:59;;;;;;;41.33;34.22;;;-0.30;99.90;;;;;;5038240;28;20124;-79
2023/01/25 08:46:27;;;;;;;41.22;34.47;;;-0.30;99.90;;;;;;5039327;28;20458;-79
2023/01/25 08:48:56;;;;;;;32.05;16.52;;;-0.20;99.90;;;;;;5055909;28;20076;-79
2023/01/25 08:51:23;;;;;;;44.90;36.95;;;-0.30;99.90;;;;;;5051354;28;20482;-79
2023/01/25 08:53:49;;;;;;;46.22;35.72;;;-0.20;99.90;;;;;;5048922;28;20037;-79
2023/01/25 08:56:15;;;;;;;45.15;35.50;;;-0.20;99.90;;;;;;5047691;28;20036;-79
2023/01/25 08:58:43;;;;;;;34.65;16.45;;;-0.20;99.90;;;;;;5031818;28;20123;-79
2023/01/25 09:01:11;;;;;;;43.63;34.55;;;-0.20;99.90;;;;;;5014749;28;20037;-78
2023/01/25 09:03:45;;;;;;;45.47;35.50;;;-0.20;99.90;;;;;;5035255;28;20033;-78
2023/01/25 09:06:12;;;;;;;30.55;16.08;;;-0.20;99.90;;;;;;5010506;28;20029;-79
2023/01/25 09:08:38;;;;;;;46.22;35.42;;;-0.20;99.90;;;;;;5025274;28;20083;-79
2023/01/25 09:11:18;;;;;;;45.10;34.83;;;-0.20;99.90;;;;;;5036987;28;20033;-80
2023/01/25 09:13:44;;;;;;;47.30;35.13;;;-0.20;99.90;;;;;;5034412;28;20631;-79
2023/01/25 09:16:19;;;;;;;47.28;35.60;;;-0.20;99.90;;;;;;5037512;28;20091;-80
2023/01/25 09:18:46;;;;;;;33.00;15.15;;;-0.20;99.90;;;;;;5020473;28;20040;-80
2023/01/25 09:21:14;;;;;;;47.33;35.92;;;-0.20;99.90;;;;;;5016818;28;20040;-80
2023/01/25 09:23:40;;;;;;;46.13;35.60;;;-0.20;99.90;;;;;;5037385;28;20102;-79
2023/01/25 09:26:06;;;;;;;30.35;16.17;;;-0.20;99.90;;;;;;5020058;28;20483;-79
2023/01/25 09:28:32;;;;;;;35.15;16.48;;;-0.20;99.90;;;;;;5035826;28;20335;-79
2023/01/25 09:31:01;;;;;;;51.35;36.38;;;-0.10;99.90;;;;;;5018215;28;20032;-80
2023/01/25 09:33:29;;;;;;;45.28;34.47;;;-0.10;99.90;;;;;;5017381;28;20029;-79
2023/01/25 09:35:54;;;;;;;31.77;16.27;;;-0.10;99.90;;;;;;5043728;28;20562;-79
2023/01/25 09:38:20;;;;;;;47.10;35.88;;;-0.20;99.90;;;;;;5019677;28;20171;-79
2023/01/25 09:41:15;;;;;;;46.88;35.83;;;-0.20;99.90;;;;;;5031679;28;20411;-79
2023/01/25 09:44:13;;;;;;;49.80;36.45;;;-0.10;99.90;;;;;;5010995;28;20488;-79
2023/01/25 09:46:40;;;;;;;38.60;17.13;;;-0.10;99.90;;;;;;4965393;28;20050;-78
2023/01/25 09:49:44;;;;;;;34.10;16.73;;;-0.10;99.90;;;;;;5015013;28;20042;-78
2023/01/25 09:52:31;;;;;;;43.97;34.60;;;-0.10;99.90;;;;;;5023254;28;20098;-78
2023/01/25 09:54:57;;;;;;;47.85;35.40;;;-0.10;99.90;;;;;;5032422;28;20036;-79
2023/01/25 09:57:30;;;;;;;47.83;34.47;;;-0.10;99.90;;;;;;5041421;28;20048;-82
2023/01/25 09:59:58;;;;;;;38.33;17.52;;;-0.10;99.90;;;;;;5042384;28;20059;-82
2023/01/25 10:02:39;;;;;;;31.30;15.40;;;-0.10;99.90;;;;;;5025365;28;20096;-82
2023/01/25 10:05:20;;;;;;;48.58;35.95;;;-0.10;99.90;;;;;;5041666;28;20067;-82
2023/01/25 10:08:13;;;;;;;49.28;36.45;;;-0.10;99.90;;;;;;5025609;28;20108;-82
2023/01/25 10:10:41;;;;;;;48.25;35.60;;;-0.10;99.90;;;;;;5017039;28;20045;-83
2023/01/25 10:13:16;;;;;;;50.13;36.08;;;-0.10;99.90;;;;;;5039068;22;20049;-74
2023/01/25 10:16:34;;;;;;;50.22;36.47;;;-0.10;99.90;;;;;;5029770;28;20040;-74
2023/01/25 10:19:18;;;;;;;53.35;37.78;;;0.00;99.90;;;;;;5001698;28;20503;-75
2023/01/25 10:21:48;;;;;;;51.67;36.53;;;0.00;99.90;;;;;;5019956;28;20037;-75
2023/01/25 10:24:38;;;;;;;52.45;37.67;;;0.00;99.90;;;;;;5017595;28;20041;-74
2023/01/25 10:27:42;;;;;;;35.10;15.77;;;0.00;99.90;;;;;;5034025;28;20041;-74
2023/01/25 10:30:33;;;;;;;48.83;36.20;;;0.00;99.90;;;;;;5030248;28;20050;-74
2023/01/25 10:33:14;;;;;;;51.03;37.40;;;-0.10;99.90;;;;;;5010992;28;20077;-75
2023/01/25 10:35:44;;;;;;;34.47;16.55;;;0.00;99.90;;;;;;4999842;28;20582;-75
2023/01/25 10:38:25;;;;;;;54.47;37.67;;;0.00;99.90;;;;;;5002860;28;20120;-75
2023/01/25 10:41:06;;;;;;;53.97;38.20;;;0.00;99.90;;;;;;5022213;28;20091;-74
2023/01/25 10:43:32;;;;;;;55.95;38.10;;;0.00;99.90;;;;;;5004206;28;20041;-75
2023/01/25 10:45:57;;;;;;;54.10;38.65;;;0.00;99.90;;;;;;5018831;28;20033;-75
2023/01/25 10:48:31;;;;;;;54.58;37.38;;;0.00;99.90;;;;;;5002521;28;20079;-75
2023/01/25 10:50:58;;;;;;;53.40;37.85;;;0.10;99.90;;;;;;5014146;28;20030;-74
2023/01/25 10:53:38;;;;;;;52.95;36.53;;;0.10;99.90;;;;;;5012859;28;20488;-75
2023/01/25 10:56:17;;;;;;;51.58;37.47;;;0.10;99.90;;;;;;5022520;28;20503;-75
2023/01/25 10:58:46;;;;;;;51.25;36.65;;;0.10;99.90;;;;;;5016602;28;20450;-75
2023/01/25 11:01:33;;;;;;;53.75;37.25;;;0.10;99.90;;;;;;5017077;28;20388;-74
2023/01/25 11:04:00;;;;;;;52.40;36.78;;;0.10;99.90;;;;;;4997923;28;20052;-75
2023/01/25 11:06:30;;;;;;;55.15;37.58;;;0.10;99.90;;;;;;5019946;28;20447;-75
2023/01/25 11:08:56;;;;;;;53.22;36.55;;;0.10;99.90;;;;;;5023811;28;20043;-74
2023/01/25 11:11:37;;;;;;;39.97;17.63;;;0.10;99.90;;;;;;5013009;28;20030;-74
2023/01/25 11:14:17;;;;;;;51.85;35.42;;;0.10;99.90;;;;;;5004256;28;20033;-73
2023/01/25 11:16:47;;;;;;;53.90;36.03;;;0.20;99.90;;;;;;5009604;28;20045;-74
2023/01/25 11:19:35;;;;;;;55.50;37.78;;;0.20;99.90;;;;;;4994304;28;20069;-74
2023/01/25 11:22:05;;;;;;;52.78;38.33;;;0.20;99.90;;;;;;5011828;28;20156;-73
2023/01/25 11:24:33;;;;;;;54.55;37.70;;;0.30;99.90;;;;;;5024208;28;20046;-73
2023/01/25 11:27:21;;;;;;;52.38;36.78;;;0.20;99.90;;;;;;5007796;28;20037;-74
2023/01/25 11:30:06;;;;;;;38.17;17.77;;;0.30;99.90;;;;;;5017878;28;20041;-73
2023/01/25 11:32:32;;;;;;;48.40;35.00;;;0.20;99.90;;;;;;5013878;28;20049;-74
2023/01/25 11:34:58;;;;;;;51.55;36.13;;;0.20;99.90;;;;;;5019736;28;20049;-74
2023/01/25 11:37:54;;;;;;;46.97;33.63;;;0.20;99.90;;;;;;5020795;28;20034;-73
2023/01/25 11:40:22;;;;;;;31.02;14.93;;;0.20;99.90;;;;;;5004580;28;20037;-73
2023/01/25 11:43:18;;;;;;;46.45;33.30;;;0.10;99.90;;;;;;5009185;28;20205;-74
2023/01/25 11:45:48;;;;;;;49.40;33.15;;;0.10;99.90;;;;;;4989804;28;20033;-73
2023/01/25 11:48:29;;;;;;;37.30;15.27;;;0.10;99.90;;;;;;5024907;28;20557;-74
2023/01/25 11:51:13;;;;;;;47.55;32.42;;;0.00;99.90;;;;;;5032541;28;20090;-73
2023/01/25 11:53:55;;;;;;;50.40;33.90;;;0.00;99.90;;;;;;5010127;28;20124;-74
2023/01/25 11:56:51;;;;;;;34.38;16.45;;;0.00;99.90;;;;;;5006652;28;20102;-74
2023/01/25 11:59:38;;;;;;;46.85;32.47;;;0.00;99.90;;;;;;5014311;28;20096;-74
2023/01/25 12:02:35;;;;;;;49.75;32.92;;;0.00;99.90;;;;;;5016324;28;20423;-74
2023/01/25 12:05:39;;;;;;;32.20;15.15;;;0.00;99.90;;;;;;5020606;28;20055;-74
2023/01/25 12:08:04;;;;;;;;;;;0.00;99.90;;;;;;5017666;28;20454;-73
2023/01/25 12:10:50;;;;;;;49.72;33.28;;;0.00;99.90;;;;;;5015485;28;19921;-74
2023/01/25 12:13:39;;;;;;;32.40;14.57;;;-0.10;99.90;;;;;;5006793;28;20041;-74
2023/01/25 12:16:32;;;;;;;35.40;14.90;;;-0.10;99.90;;;;;;5015430;28;20469;-73
2023/01/25 12:19:18;;;;;;;50.78;32.80;;;-0.10;99.90;;;;;;5015930;28;20121;-73
2023/01/25 12:22:08;;;;;;;36.30;15.45;;;-0.10;99.90;;;;;;5015229;28;20499;-74
2023/01/25 12:24:52;;;;;;;50.72;33.53;;;-0.10;99.90;;;;;;5020022;28;20106;-74
2023/01/25 12:27:38;;;;;;;51.28;33.25;;;-0.10;99.90;;;;;;5004706;28;20110;-74
2023/01/25 12:30:35;;;;;;;54.47;34.85;;;-0.10;99.90;;;;;;5005792;28;20510;-74
2023/01/25 12:33:22;;;;;;;37.63;16.67;;;-0.10;99.90;;;;;;5000544;28;20107;-73
2023/01/25 12:36:01;;;;;;;54.45;32.00;;;-0.10;99.90;;;;;;5023640;28;20510;-74
2023/01/25 12:38:36;;;;;;;51.33;31.85;;;-0.20;99.90;;;;;;4991683;28;20045;-75
2023/01/25 12:41:24;;;;;;;33.05;14.38;;;-0.20;99.90;;;;;;5023974;28;20479;-75
2023/01/25 12:44:14;;;;;;;53.72;33.10;;;-0.20;99.90;;;;;;5014238;28;20376;-74
2023/01/25 12:46:55;;;;;;;51.78;32.33;;;-0.20;99.90;;;;;;5008965;28;20038;-73
2023/01/25 12:49:41;;;;;;;55.25;33.72;;;-0.20;99.90;;;;;;5010495;28;20029;-74
2023/01/25 12:52:21;;;;;;;54.10;34.63;;;-0.20;99.90;;;;;;5015228;28;20090;-75
2023/01/25 12:54:47;;;;;;;54.17;34.58;;;-0.20;99.90;;;;;;5012264;28;20041;-74
2023/01/25 12:57:32;;;;;;;51.53;32.47;;;-0.20;99.90;;;;;;5017819;28;20399;-74